createdAt,value
2019-04-22T00:01:23.141Z,32.80
2019-04-22T00:03:55.142Z,31.70
2019-04-22T00:06:48.374Z,30.90
2019-04-22T00:09:19.191Z,31.90
2019-04-22T00:11:46.989Z,32.60
2019-04-22T00:14:14.167Z,31.90
2019-04-22T00:17:07.464Z,30.80
2019-04-22T00:19:24.668Z,32.80
2019-04-22T00:21:55.679Z,32.40
2019-04-22T00:24:18.755Z,33.20
2019-04-22T00:26:49.958Z,33.20
2019-04-22T00:29:46.600Z,33.30
2019-04-22T00:32:18.166Z,32.70
2019-04-22T00:34:48.780Z,33.20
2019-04-22T00:37:22.819Z,32.50
2019-04-22T00:39:51.784Z,32.50
2019-04-22T00:42:21.074Z,31.70
2019-04-22T00:45:03.316Z,32.90
2019-04-22T00:47:27.962Z,34.00
2019-04-22T00:50:12.329Z,34.80
2019-04-22T00:52:28.509Z,34.00
2019-04-22T00:55:06.071Z,34.10
2019-04-22T01:00:06.683Z,33.50
2019-04-22T01:02:37.611Z,33.90
2019-04-22T01:05:04.013Z,33.10
2019-04-22T01:07:30.439Z,34.50
2019-04-22T01:10:06.946Z,34.90
2019-04-22T01:12:32.973Z,33.60
2019-04-22T01:15:08.743Z,34.40
2019-04-22T01:17:40.301Z,33.00
2019-04-22T01:20:25.774Z,33.00
2019-04-22T01:22:33.033Z,32.60
2019-04-22T01:25:08.349Z,32.40
2019-04-22T01:27:32.427Z,30.40
2019-04-22T01:30:00.994Z,31.10
2019-04-22T01:32:23.927Z,32.80
2019-04-22T01:35:04.793Z,32.50
2019-04-22T01:37:41.688Z,31.80
2019-04-22T01:40:16.724Z,32.50
2019-04-22T01:42:50.525Z,31.80
2019-04-22T01:45:19.353Z,30.70
2019-04-22T01:47:49.166Z,31.60
2019-04-22T01:50:23.921Z,31.00
2019-04-22T01:52:52.168Z,31.80
2019-04-22T01:55:27.445Z,31.10
2019-04-22T01:57:47.822Z,32.10
2019-04-22T02:00:17.827Z,32.70
2019-04-22T02:03:02.376Z,31.60
2019-04-22T02:05:22.840Z,32.00
2019-04-22T02:07:59.545Z,32.20
2019-04-22T02:10:36.242Z,33.00
2019-04-22T02:13:00.148Z,32.20
2019-04-22T02:15:47.876Z,33.20
2019-04-22T02:18:01.254Z,33.20
2019-04-22T02:20:33.845Z,33.20
2019-04-22T02:26:04.174Z,32.70
2019-04-22T02:28:42.788Z,32.70
2019-04-22T02:31:23.211Z,32.90
2019-04-22T02:38:56.789Z,33.50
2019-04-22T02:43:51.946Z,35.00
2019-04-22T02:48:53.253Z,33.60
2019-04-22T02:51:19.877Z,33.80
2019-04-22T02:56:27.431Z,35.20
2019-04-22T02:59:00.127Z,34.90
2019-04-22T03:01:27.626Z,34.20
2019-04-22T03:06:29.560Z,33.50
2019-04-22T03:08:53.821Z,33.90
2019-04-22T03:11:25.211Z,34.50
2019-04-22T03:13:55.629Z,34.30
2019-04-22T03:18:57.390Z,34.60
2019-04-22T03:21:20.061Z,34.40
2019-04-22T03:26:27.602Z,34.60
2019-04-22T03:29:14.916Z,32.80
2019-04-22T03:37:20.579Z,33.20
2019-04-22T03:39:44.972Z,32.20
2019-04-22T03:54:39.442Z,31.50
2019-04-22T04:09:38.769Z,30.90
2019-04-22T04:14:47.151Z,30.10
2019-04-22T04:17:24.324Z,30.50
2019-04-22T04:22:21.879Z,30.50
2019-04-22T04:27:39.854Z,30.10
2019-04-22T04:32:34.340Z,30.70
2019-04-22T04:37:40.943Z,30.90
2019-04-22T04:45:26.634Z,31.50
2019-04-22T04:47:42.988Z,31.60
2019-04-22T04:55:10.061Z,35.60
2019-04-22T04:57:43.556Z,36.40
2019-04-22T05:00:32.323Z,35.10
2019-04-22T05:03:13.623Z,34.80
2019-04-22T05:05:12.837Z,34.20
2019-04-22T05:15:17.660Z,32.60
2019-04-22T05:22:39.778Z,32.30
2019-04-22T05:25:15.155Z,33.00
2019-04-22T05:27:39.672Z,32.70
2019-04-22T05:37:45.839Z,33.60
2019-04-22T05:40:16.353Z,33.30
2019-04-22T05:42:39.548Z,34.30
2019-04-22T05:45:17.404Z,33.60
2019-04-22T05:47:47.465Z,34.80
2019-04-22T05:50:20.422Z,35.00
2019-04-22T05:52:54.393Z,34.70
2019-04-22T05:57:57.815Z,34.70
2019-04-22T06:00:38.334Z,34.40
2019-04-22T06:02:56.649Z,33.60
2019-04-22T06:05:32.692Z,33.60
2019-04-22T06:08:00.171Z,34.10
2019-04-22T06:10:33.408Z,33.90
2019-04-22T06:12:56.297Z,33.30
2019-04-22T06:15:44.128Z,33.50
2019-04-22T06:18:16.226Z,33.60
2019-04-22T06:20:38.389Z,33.80
2019-04-22T06:23:12.643Z,33.60
2019-04-22T06:28:23.547Z,33.70
2019-04-22T06:30:41.509Z,34.20
2019-04-22T06:33:19.180Z,33.80
2019-04-22T06:35:43.523Z,33.70
2019-04-22T06:38:31.556Z,33.20
2019-04-22T06:40:52.114Z,33.50
2019-04-22T06:43:16.100Z,34.00
2019-04-22T06:45:43.601Z,33.70
2019-04-22T06:48:19.465Z,34.40
2019-04-22T06:50:47.536Z,33.50
2019-04-22T06:53:16.877Z,32.60
2019-04-22T06:55:51.342Z,32.00
2019-04-22T06:58:21.544Z,32.30
2019-04-22T07:00:44.735Z,32.30
2019-04-22T07:05:52.041Z,31.30
2019-04-22T07:08:59.530Z,31.30
2019-04-22T07:10:58.274Z,30.80
2019-04-22T07:16:23.326Z,30.80
2019-04-22T07:21:01.382Z,31.90
2019-04-22T07:23:34.913Z,31.80
2019-04-22T07:26:04.305Z,30.00
2019-04-22T07:28:29.143Z,30.60
2019-04-22T07:31:12.990Z,30.80
2019-04-22T07:36:30.574Z,30.40
2019-04-22T07:38:36.167Z,32.50
2019-04-22T07:41:17.270Z,30.20
2019-04-22T07:43:59.694Z,31.80
2019-04-22T07:46:16.381Z,30.20
2019-04-22T07:48:49.905Z,31.00
2019-04-22T07:51:16.842Z,30.90
2019-04-22T07:53:53.993Z,31.20
2019-04-22T07:56:18.826Z,29.60
2019-04-22T07:58:50.413Z,30.40
2019-04-22T08:01:20.448Z,29.50
2019-04-22T08:03:58.747Z,31.20
2019-04-22T08:08:56.232Z,29.80
2019-04-22T08:11:42.326Z,29.50
2019-04-22T08:13:54.829Z,29.50
2019-04-22T08:16:23.319Z,32.30
2019-04-22T08:18:59.678Z,28.60
2019-04-22T08:21:23.843Z,30.70
2019-04-22T08:24:03.033Z,34.70
2019-04-22T08:26:31.977Z,30.00
2019-04-22T08:29:08.108Z,29.40
2019-04-22T08:31:35.493Z,31.70
2019-04-22T08:34:06.401Z,29.30
2019-04-22T08:36:41.038Z,29.80
2019-04-22T08:39:07.983Z,29.20
2019-04-22T08:41:37.173Z,32.20
2019-04-22T08:44:07.667Z,29.50
2019-04-22T08:46:40.966Z,30.50
2019-04-22T08:49:30.454Z,30.70
2019-04-22T08:51:56.214Z,30.80
2019-04-22T08:54:13.833Z,30.30
2019-04-22T08:56:57.759Z,29.20
2019-04-22T08:59:12.419Z,32.30
2019-04-22T09:01:44.925Z,30.00
2019-04-22T09:04:11.698Z,30.10
2019-04-22T09:09:21.286Z,31.00
2019-04-22T09:14:24.401Z,29.60
2019-04-22T09:16:48.197Z,29.10
2019-04-22T09:19:16.807Z,30.90
2019-04-22T09:21:57.524Z,30.60
2019-04-22T09:24:23.213Z,31.40
2019-04-22T09:26:54.585Z,29.10
2019-04-22T09:29:32.590Z,30.00
2019-04-22T09:32:00.422Z,29.40
2019-04-22T09:34:28.016Z,29.40
2019-04-22T09:37:06.030Z,28.90
2019-04-22T09:39:29.745Z,28.20
2019-04-22T09:42:02.632Z,28.70
2019-04-22T09:44:34.625Z,28.70
2019-04-22T09:47:01.933Z,29.20
2019-04-22T09:49:40.552Z,30.90
2019-04-22T09:52:02.924Z,28.40
2019-04-22T09:54:39.958Z,29.40
2019-04-22T09:57:06.992Z,29.40
2019-04-22T09:59:34.763Z,29.50
2019-04-22T10:02:21.972Z,30.10
2019-04-22T10:04:33.096Z,32.40
2019-04-22T10:07:10.101Z,32.70
2019-04-22T10:09:51.790Z,30.30
2019-04-22T10:12:10.176Z,31.90
2019-04-22T10:14:39.537Z,30.30
2019-04-22T10:17:09.950Z,30.50
2019-04-22T10:19:41.066Z,31.10
2019-04-22T10:22:12.043Z,30.50
2019-04-22T10:24:40.379Z,31.70
2019-04-22T10:27:08.843Z,30.50
2019-04-22T10:29:47.039Z,31.60
2019-04-22T10:32:15.914Z,31.40
2019-04-22T10:34:32.508Z,30.90
2019-04-22T10:36:56.866Z,31.40
2019-04-22T10:39:35.690Z,31.70
2019-04-22T10:41:52.788Z,32.50
2019-04-22T10:44:23.529Z,32.30
2019-04-22T10:46:53.890Z,30.70
2019-04-22T10:49:24.413Z,31.30
2019-04-22T10:51:54.858Z,30.80
2019-04-22T10:54:25.482Z,31.40
2019-04-22T10:56:55.099Z,31.30
2019-04-22T10:59:24.676Z,30.70
2019-04-22T11:01:55.002Z,31.50
2019-04-22T11:04:24.129Z,34.10
2019-04-22T11:07:00.846Z,32.10
2019-04-22T11:09:25.238Z,32.20
2019-04-22T11:12:02.092Z,32.20
2019-04-22T11:14:26.573Z,33.00
2019-04-22T11:16:58.718Z,32.90
2019-04-22T11:19:27.752Z,32.40
2019-04-22T11:22:06.892Z,33.60
2019-04-22T11:24:28.473Z,32.70
2019-04-22T11:26:58.859Z,32.60
2019-04-22T11:29:29.754Z,34.80
2019-04-22T11:32:00.095Z,33.00
2019-04-22T11:34:29.264Z,32.50
2019-04-22T11:36:58.958Z,31.90
2019-04-22T11:39:31.841Z,32.80
2019-04-22T11:42:00.285Z,32.30
2019-04-22T11:44:30.777Z,32.00
2019-04-22T11:47:01.434Z,31.60
2019-04-22T11:49:31.927Z,33.00
2019-04-22T11:52:01.164Z,33.80
2019-04-22T11:54:30.607Z,32.70
2019-04-22T11:57:01.013Z,33.20
2019-04-22T11:59:30.927Z,32.90
2019-04-22T12:02:00.638Z,32.80
2019-04-22T12:04:30.035Z,33.80
2019-04-22T12:07:00.112Z,31.40
2019-04-22T12:09:33.346Z,32.00
2019-04-22T12:12:03.473Z,30.70
2019-04-22T12:14:34.024Z,33.90
2019-04-22T12:17:03.577Z,33.80
2019-04-22T12:19:33.427Z,32.50
2019-04-22T12:22:04.803Z,33.50
2019-04-22T12:24:36.395Z,32.60
2019-04-22T12:27:06.582Z,31.50
2019-04-22T12:29:35.629Z,31.70
2019-04-22T12:32:05.306Z,33.00
2019-04-22T12:34:35.399Z,30.10
2019-04-22T12:37:04.664Z,31.70
2019-04-22T12:39:33.809Z,33.60
2019-04-22T12:42:02.852Z,32.00
2019-04-22T12:44:32.757Z,33.50
2019-04-22T12:47:03.637Z,31.90
2019-04-22T12:49:35.632Z,33.90
2019-04-22T12:52:03.437Z,31.40
2019-04-22T12:54:33.049Z,32.40
2019-04-22T12:57:03.808Z,32.20
2019-04-22T12:59:33.081Z,30.10
2019-04-22T13:02:03.027Z,30.80
2019-04-22T13:04:32.319Z,30.70
2019-04-22T13:07:01.817Z,30.90
2019-04-22T13:09:31.618Z,30.40
2019-04-22T13:12:01.222Z,31.30
2019-04-22T13:14:30.725Z,30.90
2019-04-22T13:16:59.836Z,32.20
2019-04-22T13:19:30.170Z,30.90
2019-04-22T13:22:00.744Z,31.10
2019-04-22T13:24:32.054Z,32.00
2019-04-22T13:27:01.330Z,32.60
2019-04-22T13:29:31.095Z,31.80
2019-04-22T13:32:00.639Z,33.10
2019-04-22T13:34:37.554Z,32.60
2019-04-22T13:37:01.178Z,32.70
2019-04-22T13:39:31.309Z,31.80
2019-04-22T13:42:04.618Z,32.30
2019-04-22T13:44:31.486Z,32.90
2019-04-22T13:47:15.758Z,33.20
2019-04-22T13:52:40.918Z,33.70
2019-04-22T13:57:19.764Z,34.00
2019-04-22T13:59:41.124Z,34.10
2019-04-22T14:02:34.756Z,33.80
2019-04-22T14:05:04.438Z,34.90
2019-04-22T14:07:34.772Z,33.70
2019-04-22T14:10:04.446Z,34.10
2019-04-22T14:12:34.851Z,34.00
2019-04-22T14:15:04.520Z,34.10
2019-04-22T14:17:34.843Z,33.70
2019-04-22T14:20:04.796Z,34.60
2019-04-22T14:22:34.668Z,33.40
2019-04-22T14:25:05.031Z,33.80
2019-04-22T14:27:44.354Z,33.50
2019-04-22T14:30:06.450Z,34.80
2019-04-22T14:32:36.479Z,33.90
2019-04-22T14:35:09.111Z,33.50
2019-04-22T14:37:38.544Z,34.20
2019-04-22T14:40:09.942Z,34.00
2019-04-22T14:43:00.596Z,34.80
2019-04-22T14:45:44.516Z,34.10
2019-04-22T14:48:07.571Z,34.50
2019-04-22T14:50:35.529Z,33.00
2019-04-22T14:53:04.105Z,31.80
2019-04-22T14:55:23.113Z,31.90
2019-04-22T14:57:46.986Z,31.00
2019-04-22T15:00:18.071Z,30.00
2019-04-22T15:02:47.921Z,30.60
2019-04-22T15:05:18.616Z,30.20
2019-04-22T15:07:47.865Z,32.00
2019-04-22T15:10:18.119Z,30.60
2019-04-22T15:12:50.892Z,30.30
2019-04-22T15:15:51.156Z,31.50
2019-04-22T15:18:47.609Z,31.70
2019-04-22T15:21:20.583Z,30.80
2019-04-22T15:23:50.854Z,30.70
2019-04-22T15:26:20.327Z,30.40
2019-04-22T15:28:49.533Z,32.10
2019-04-22T15:31:19.440Z,32.30
2019-04-22T15:33:50.306Z,31.80
2019-04-22T15:36:19.994Z,32.00
2019-04-22T15:38:49.208Z,32.90
2019-04-22T15:41:18.769Z,33.00
2019-04-22T15:43:47.973Z,32.30
2019-04-22T15:46:17.981Z,33.50
2019-04-22T15:48:48.457Z,33.00
2019-04-22T15:51:18.557Z,33.20
2019-04-22T15:53:47.710Z,34.00
2019-04-22T15:56:16.876Z,33.20
2019-04-22T15:58:51.501Z,34.00
2019-04-22T16:01:27.544Z,33.40
2019-04-22T16:03:52.438Z,32.70
2019-04-22T16:06:22.058Z,32.90
2019-04-22T16:08:52.117Z,31.70
2019-04-22T16:11:22.275Z,32.60
2019-04-22T16:13:52.481Z,33.30
2019-04-22T16:16:22.790Z,32.40
2019-04-22T16:18:52.014Z,33.10
2019-04-22T16:21:32.698Z,34.00
2019-04-22T16:24:20.222Z,33.30
2019-04-22T16:27:02.462Z,33.30
2019-04-22T16:29:31.626Z,33.30
2019-04-22T16:32:01.226Z,33.40
2019-04-22T16:34:31.275Z,33.90
2019-04-22T16:37:00.842Z,33.30
2019-04-22T16:39:31.094Z,33.20
2019-04-22T16:42:00.636Z,32.80
2019-04-22T16:44:30.388Z,32.70
2019-04-22T16:46:59.602Z,33.30
2019-04-22T16:49:29.770Z,33.20
2019-04-22T16:52:00.226Z,34.60
2019-04-22T16:54:30.628Z,33.20
2019-04-22T16:56:59.956Z,32.80
2019-04-22T16:59:29.102Z,34.00
2019-04-22T17:02:26.501Z,33.70
2019-04-22T17:05:13.850Z,33.20
2019-04-22T17:07:44.202Z,33.50
2019-04-22T17:10:13.913Z,36.40
2019-04-22T17:12:50.805Z,35.30
2019-04-22T17:15:16.228Z,35.40
2019-04-22T17:17:45.311Z,34.50
2019-04-22T17:20:15.481Z,34.80
2019-04-22T17:22:44.717Z,34.10
2019-04-22T17:25:14.167Z,34.50
2019-04-22T17:27:43.504Z,34.50
2019-04-22T17:30:13.004Z,35.00
2019-04-22T17:32:45.004Z,34.50
2019-04-22T17:35:13.433Z,35.00
2019-04-22T17:37:42.910Z,35.40
2019-04-22T17:40:30.180Z,35.00
2019-04-22T17:43:06.544Z,35.80
2019-04-22T17:45:57.296Z,35.20
2019-04-22T17:48:49.158Z,35.80
2019-04-22T17:51:30.030Z,35.60
2019-04-22T17:53:55.019Z,35.80
2019-04-22T17:56:24.842Z,35.40
2019-04-22T17:58:52.674Z,36.00
2019-04-22T18:01:27.582Z,35.40
2019-04-22T18:03:39.105Z,35.90
2019-04-22T18:06:10.368Z,35.80
2019-04-22T18:08:50.437Z,35.90
2019-04-22T18:11:33.489Z,35.90
2019-04-22T18:14:10.385Z,36.20
2019-04-22T18:16:25.775Z,36.10
2019-04-22T18:19:01.143Z,36.10
2019-04-22T18:21:23.224Z,35.60
2019-04-22T18:23:49.336Z,36.10
2019-04-22T18:26:26.272Z,35.80
2019-04-22T18:29:00.878Z,35.70
2019-04-22T18:31:21.513Z,35.40
2019-04-22T18:33:54.590Z,35.50
2019-04-22T18:36:30.616Z,35.40
2019-04-22T18:39:11.420Z,35.60
2019-04-22T18:41:35.412Z,35.20
2019-04-22T18:44:04.322Z,35.60
2019-04-22T18:46:36.685Z,35.50
2019-04-22T18:49:06.896Z,34.70
2019-04-22T18:51:43.860Z,34.40
2019-04-22T18:54:48.423Z,34.00
2019-04-22T18:57:12.302Z,33.70
2019-04-22T18:59:32.682Z,33.70
2019-04-22T19:02:01.437Z,33.90
2019-04-22T19:04:41.133Z,33.90
2019-04-22T19:07:31.037Z,34.10
2019-04-22T19:09:56.254Z,34.00
2019-04-22T19:12:46.824Z,34.50
2019-04-22T19:15:01.705Z,33.90
2019-04-22T19:17:35.390Z,33.20
2019-04-22T19:20:03.071Z,33.50
2019-04-22T19:22:29.845Z,33.30
2019-04-22T19:24:56.085Z,33.20
2019-04-22T19:27:26.601Z,33.30
2019-04-22T19:29:57.410Z,33.10
2019-04-22T19:32:25.523Z,33.00
2019-04-22T19:35:00.973Z,33.20
2019-04-22T19:37:27.149Z,33.30
2019-04-22T19:40:10.434Z,33.50
2019-04-22T19:42:38.644Z,33.50
2019-04-22T19:45:00.641Z,32.50
2019-04-22T19:47:38.725Z,34.20
2019-04-22T19:52:38.564Z,33.40
2019-04-22T19:55:07.674Z,32.30
2019-04-22T19:57:34.229Z,33.40
2019-04-22T20:00:11.289Z,33.00
2019-04-22T20:03:05.376Z,33.10
2019-04-22T20:05:47.604Z,32.70
2019-04-22T20:08:21.349Z,33.20
2019-04-22T20:10:45.890Z,32.40
2019-04-22T20:13:24.365Z,33.00
2019-04-22T20:15:41.139Z,32.70
2019-04-22T20:18:39.377Z,33.10
2019-04-22T20:20:54.094Z,33.10
2019-04-22T20:23:14.412Z,32.60
2019-04-22T20:25:48.644Z,32.70
2019-04-22T20:28:24.226Z,32.30
2019-04-22T20:30:58.008Z,32.30
2019-04-22T20:33:29.091Z,32.80
2019-04-22T20:35:58.201Z,32.60
2019-04-22T20:38:26.233Z,32.40
2019-04-22T20:40:55.045Z,32.50
2019-04-22T20:43:35.501Z,32.50
2019-04-22T20:45:58.797Z,32.80
2019-04-22T20:48:28.255Z,32.50
2019-04-22T20:50:57.910Z,32.00
2019-04-22T20:53:37.935Z,32.30
2019-04-22T20:56:01.095Z,32.60
2019-04-22T20:58:32.985Z,32.30
2019-04-22T21:00:56.885Z,32.40
2019-04-22T21:03:26.172Z,32.10
2019-04-22T21:05:55.892Z,32.10
2019-04-22T21:08:40.345Z,32.00
2019-04-22T21:10:59.976Z,32.40
2019-04-22T21:13:32.563Z,32.70
2019-04-22T21:16:09.314Z,32.30
2019-04-22T21:18:36.135Z,32.50
2019-04-22T21:21:13.801Z,33.00
2019-04-22T21:23:35.020Z,32.90
2019-04-22T21:26:13.983Z,32.90
2019-04-22T21:28:44.839Z,32.70
2019-04-22T21:31:18.928Z,33.10
2019-04-22T21:33:48.761Z,32.70
2019-04-22T21:36:20.637Z,32.70
2019-04-22T21:38:43.440Z,33.30
2019-04-22T21:41:17.137Z,32.70
2019-04-22T21:43:48.177Z,33.10
2019-04-22T21:46:20.734Z,33.00
2019-04-22T21:48:48.255Z,32.60
2019-04-22T21:51:24.563Z,34.10
2019-04-22T21:54:00.318Z,33.80
2019-04-22T21:56:38.136Z,34.20
2019-04-22T21:59:00.222Z,34.00
2019-04-22T22:01:47.476Z,33.80
2019-04-22T22:04:09.690Z,34.50
2019-04-22T22:06:30.292Z,34.20
2019-04-22T22:09:13.025Z,34.70
2019-04-22T22:11:38.657Z,34.70
2019-04-22T22:14:07.655Z,35.10
2019-04-22T22:16:37.481Z,34.70
2019-04-22T22:19:11.766Z,34.10
2019-04-22T22:24:21.142Z,34.40
2019-04-22T22:26:44.802Z,34.00
2019-04-22T22:29:24.662Z,34.10
2019-04-22T22:31:51.700Z,34.00
2019-04-22T22:34:16.673Z,33.80
2019-04-22T22:36:40.861Z,33.10
2019-04-22T22:39:10.353Z,33.10
2019-04-22T22:41:29.874Z,33.50
2019-04-22T22:44:10.534Z,33.90
2019-04-22T22:46:42.452Z,33.90
2019-04-22T22:49:23.337Z,33.80
2019-04-22T22:52:00.143Z,33.60
2019-04-22T22:54:24.654Z,34.10
2019-04-22T22:57:01.903Z,33.50
2019-04-22T22:59:31.195Z,33.80
2019-04-22T23:01:57.959Z,33.90
2019-04-22T23:04:29.567Z,33.90
2019-04-22T23:07:09.291Z,34.00
2019-04-22T23:09:28.956Z,33.80
2019-04-22T23:14:35.002Z,32.40
2019-04-22T23:16:49.341Z,33.00
2019-04-22T23:19:13.707Z,32.80
2019-04-22T23:21:48.087Z,33.10
2019-04-22T23:24:45.581Z,33.10
2019-04-22T23:27:22.780Z,33.20
2019-04-22T23:30:02.490Z,32.80
2019-04-22T23:32:31.876Z,33.30
2019-04-22T23:35:18.050Z,33.20
2019-04-22T23:37:52.628Z,34.20
2019-04-22T23:40:32.730Z,33.10
2019-04-22T23:42:56.700Z,33.30
2019-04-22T23:45:25.513Z,34.10
2019-04-22T23:47:43.220Z,33.00
2019-04-22T23:50:28.747Z,33.20
2019-04-22T23:53:00.599Z,33.50
2019-04-22T23:55:33.844Z,33.00
2019-04-22T23:58:11.769Z,32.70
